Share

Lincoln, MI (48742)

Oscoda-Wurtsmith (KOSC) Elev 633 ft | 44.45 °N, 83.39 °W | Change Station

Current weather conditions updated 11 minutes ago

Overcast
Overcast
36 °F
Feels Like 28 °F
N
10
Wind Variable Wind from SE
Sunrise 6:46 AM
Sunset 8:21 PM
Moon Waning Gibbous

Today is forecast to be Much Warmer than yesterday.

Pressure 30.39 in
Visibility 10.0 miles
Clouds Overcast 10000 ft
Windchill 28 °F
Dew Point 25 °F
Humidity 65%
Rainfall 0.00 in
Snow Depth Not available.
UV 0 out of 16
Pollen 7.70 out of 12
PM2.5 Good
Flu Activity Sporadic
METAR KOSC 170714Z AUTO 13009KT 10SM OVC100 02/M03 A3039 RMK AO2 T00201040

More Conditions Fewer Conditions

Pressure 30.39 in
Visibility 10.0 miles
Clouds Overcast 10000 ft
Windchill 28 °F
Dew Point 25 °F
Humidity 65%
Rainfall 0.00 in
Snow Depth Not available.
UV 0 out of 16
Pollen 7.70 out of 12
PM2.5 Good
Flu Activity Sporadic
METAR KOSC 170714Z AUTO 13009KT 10SM OVC100 02/M03 A3039 RMK AO2 T00201040

More Conditions Fewer Conditions

Nowcast | as of 3:00 am EDT on April 17, 2014

At 4 am...mostly cloudy. Temperature 32. Southeast winds 10 mph. At 6 am...mostly cloudy. Temperature 29. Southeast winds 12 mph. At 8 am...mostly cloudy. Temperature 29. Southeast winds 15 mph. At 10 am...partly cloudy. Temperature 37. Southeast winds 16 mph.

×

10-Day Forecast

Almanac

Astronomy

Apr. 17, 2014 Rise Set
Actual Time 6:46 AM EDT 8:21 PM EDT
Civil Twilight 6:15 AM EDT 8:52 PM EDT
Nautical Twilight 5:38 AM EDT 9:29 PM EDT
Astronomical Twilight 4:58 AM EDT 10:09 PM EDT
Moon 11:11 PM EDT 8:12 AM EDT
Length of Visible Light 14h 36m
Length of Day
13h 35m
Tomorrow will be 2m 56s longer.
Waning Gibbous, 95% of the Moon is Illuminated
Today
Waning Gibbous
Apr 22
Last Quarter
Apr 29
New
May 6
First Quarter
May 14
Full

Today's Extremes

State Highs State Lows

Community

  • Sunset over the Bay
    Sunset over the Bay
  • symphony in blue....
    symphony in blue....
  • Dawn Surprise
    Dawn Surprise
  • Yucca delight
    Yucca delight
  • Sunset inside of the Ocean
    Sunset inside of the Ocean

WunderPhotos

Upload Photos

1,701,875 photos uploaded!

WunderBlogs® & News

Nearby

Air Quality

  Air Quality AQ Index Pollutant
Yesterday Good
OZONE
Yesterday Good
PM2.5
Current Good
PM2.5
Thursday Good
PM2.5
Friday Good
PM2.5
Saturday Good
PM2.5

Snow Depth

Station Depth Elevation
No new snow has been reported.

Coastal Water Temperatures

Place Temperature
No Stations Reporting

Earthquake Activity

City Distance Mag. Time & Date
No recent earthquake activity has been reported nearby.
Minimum magnitude displayed is 2.5.

Nearby Weather Stations

Station Location Temp. Windchill Dew Point Humidity Wind Precip. Elev Updated Type
Alpena, MI 35.0 °F 31 °F 30 °F 83% SSE  at  5.0 mph 0.00 in / hr 591 ft 3:15 AM EDT Normal

Show More Stations Show Fewer Stations

What do you think?

We're not finished. Please let us know what you like, what you don't like, and what you are still missing.